sensor_id;sensor_type;location;lat;lon;timestamp;pressure;altitude;pressure_sealevel;temperature;humidity
63554;BME280;49699;48.072;7.800;2022-12-18T00:00:40;100534.22;;;-6.38;90.45
63554;BME280;49699;48.072;7.800;2022-12-18T00:03:06;100530.13;;;-6.34;89.95
63554;BME280;49699;48.072;7.800;2022-12-18T00:05:31;100532.78;;;-6.29;89.96
63554;BME280;49699;48.072;7.800;2022-12-18T00:07:57;100535.38;;;-6.26;89.87
63554;BME280;49699;48.072;7.800;2022-12-18T00:10:22;100537.94;;;-6.25;90.08
63554;BME280;49699;48.072;7.800;2022-12-18T00:12:47;100538.00;;;-6.23;90.20
63554;BME280;49699;48.072;7.800;2022-12-18T00:15:12;100554.06;;;-6.23;90.36
63554;BME280;49699;48.072;7.800;2022-12-18T00:17:38;100561.66;;;-6.23;89.82
63554;BME280;49699;48.072;7.800;2022-12-18T00:20:03;100557.41;;;-6.24;89.70
63554;BME280;49699;48.072;7.800;2022-12-18T00:22:28;100553.91;;;-6.29;89.95
63554;BME280;49699;48.072;7.800;2022-12-18T00:24:54;100556.41;;;-6.31;89.72
63554;BME280;49699;48.072;7.800;2022-12-18T00:27:19;100564.81;;;-6.32;89.90
63554;BME280;49699;48.072;7.800;2022-12-18T00:29:44;100554.69;;;-6.32;89.82
63554;BME280;49699;48.072;7.800;2022-12-18T00:32:10;100553.81;;;-6.32;89.92
63554;BME280;49699;48.072;7.800;2022-12-18T00:34:35;100557.97;;;-6.34;89.74
63554;BME280;49699;48.072;7.800;2022-12-18T00:37:00;100560.31;;;-6.40;89.92
63554;BME280;49699;48.072;7.800;2022-12-18T00:39:25;100563.63;;;-6.43;90.15
63554;BME280;49699;48.072;7.800;2022-12-18T00:41:51;100570.31;;;-6.45;90.13
63554;BME280;49699;48.072;7.800;2022-12-18T00:44:35;100566.06;;;-6.47;90.16
63554;BME280;49699;48.072;7.800;2022-12-18T00:47:00;100559.88;;;-6.55;90.03
63554;BME280;49699;48.072;7.800;2022-12-18T00:49:25;100562.34;;;-6.58;89.86
63554;BME280;49699;48.072;7.800;2022-12-18T00:51:51;100566.50;;;-6.60;90.76
63554;BME280;49699;48.072;7.800;2022-12-18T00:54:16;100559.81;;;-6.58;90.74
63554;BME280;49699;48.072;7.800;2022-12-18T00:56:41;100563.91;;;-6.63;90.44
63554;BME280;49699;48.072;7.800;2022-12-18T00:59:07;100566.34;;;-6.67;90.49
63554;BME280;49699;48.072;7.800;2022-12-18T01:01:32;100570.53;;;-6.67;90.02
63554;BME280;49699;48.072;7.800;2022-12-18T01:03:58;100571.41;;;-6.67;90.39
63554;BME280;49699;48.072;7.800;2022-12-18T01:06:24;100562.22;;;-6.63;90.62
63554;BME280;49699;48.072;7.800;2022-12-18T01:08:49;100561.38;;;-6.62;90.71
63554;BME280;49699;48.072;7.800;2022-12-18T01:11:16;100558.09;;;-6.59;90.35
63554;BME280;49699;48.072;7.800;2022-12-18T01:13:41;100559.81;;;-6.58;90.39
63554;BME280;49699;48.072;7.800;2022-12-18T01:16:07;100563.97;;;-6.60;90.47
63554;BME280;49699;48.072;7.800;2022-12-18T01:18:34;100567.31;;;-6.61;89.78
63554;BME280;49699;48.072;7.800;2022-12-18T01:20:59;100570.59;;;-6.66;90.38
63554;BME280;49699;48.072;7.800;2022-12-18T01:23:24;100584.72;;;-6.72;89.92
63554;BME280;49699;48.072;7.800;2022-12-18T01:25:50;100579.41;;;-6.80;90.08
63554;BME280;49699;48.072;7.800;2022-12-18T01:28:15;100595.28;;;-6.85;90.17
63554;BME280;49699;48.072;7.800;2022-12-18T01:30:40;100587.72;;;-6.85;90.36
63554;BME280;49699;48.072;7.800;2022-12-18T01:33:06;100581.72;;;-6.87;90.23
63554;BME280;49699;48.072;7.800;2022-12-18T01:35:31;100579.06;;;-6.92;90.29
63554;BME280;49699;48.072;7.800;2022-12-18T01:37:56;100578.94;;;-6.95;90.52
63554;BME280;49699;48.072;7.800;2022-12-18T01:40:22;100580.69;;;-6.94;90.14
63554;BME280;49699;48.072;7.800;2022-12-18T01:42:53;100580.53;;;-6.98;90.50
63554;BME280;49699;48.072;7.800;2022-12-18T01:45:24;100585.47;;;-7.03;90.46
63554;BME280;49699;48.072;7.800;2022-12-18T01:47:54;100587.94;;;-7.05;90.42
63554;BME280;49699;48.072;7.800;2022-12-18T01:52:52;100584.50;;;-7.07;90.35
63554;BME280;49699;48.072;7.800;2022-12-18T01:55:19;100588.84;;;-7.03;90.75
63554;BME280;49699;48.072;7.800;2022-12-18T01:57:45;100592.34;;;-6.99;90.67
63554;BME280;49699;48.072;7.800;2022-12-18T02:00:13;100603.41;;;-6.95;90.72
63554;BME280;49699;48.072;7.800;2022-12-18T02:02:40;100606.84;;;-6.93;90.63
63554;BME280;49699;48.072;7.800;2022-12-18T02:05:06;100601.63;;;-6.98;90.31
63554;BME280;49699;48.072;7.800;2022-12-18T02:07:41;100604.09;;;-7.01;90.39
63554;BME280;49699;48.072;7.800;2022-12-18T02:11:13;100594.63;;;-7.07;90.07
63554;BME280;49699;48.072;7.800;2022-12-18T02:15:32;100607.97;;;-7.11;89.96
63554;BME280;49699;48.072;7.800;2022-12-18T02:18:04;100615.53;;;-7.12;90.47
63554;BME280;49699;48.072;7.800;2022-12-18T02:20:40;100618.81;;;-7.15;90.97
63554;BME280;49699;48.072;7.800;2022-12-18T02:23:23;100616.38;;;-7.12;91.04
63554;BME280;49699;48.072;7.800;2022-12-18T02:28:36;100618.97;;;-7.10;90.68
63554;BME280;49699;48.072;7.800;2022-12-18T02:31:06;100613.16;;;-7.08;90.71
63554;BME280;49699;48.072;7.800;2022-12-18T02:33:33;100603.13;;;-7.05;90.60
63554;BME280;49699;48.072;7.800;2022-12-18T02:36:00;100596.41;;;-7.04;90.96
63554;BME280;49699;48.072;7.800;2022-12-18T02:38:27;100593.00;;;-7.05;90.68
63554;BME280;49699;48.072;7.800;2022-12-18T02:40:56;100593.88;;;-7.04;90.61
63554;BME280;49699;48.072;7.800;2022-12-18T02:43:21;100601.47;;;-7.04;90.66
63554;BME280;49699;48.072;7.800;2022-12-18T02:45:52;100610.72;;;-7.05;89.99
63554;BME280;49699;48.072;7.800;2022-12-18T02:48:18;100604.00;;;-7.04;90.45
63554;BME280;49699;48.072;7.800;2022-12-18T02:51:11;100590.59;;;-7.02;90.25
63554;BME280;49699;48.072;7.800;2022-12-18T02:53:36;100609.22;;;-6.98;90.95
63554;BME280;49699;48.072;7.800;2022-12-18T02:56:09;100599.16;;;-6.96;89.90
63554;BME280;49699;48.072;7.800;2022-12-18T02:59:21;100595.84;;;-6.94;90.18
63554;BME280;49699;48.072;7.800;2022-12-18T03:01:38;100591.59;;;-6.95;90.00
63554;BME280;49699;48.072;7.800;2022-12-18T03:04:15;100599.19;;;-6.95;89.81
63554;BME280;49699;48.072;7.800;2022-12-18T03:06:43;100597.56;;;-6.93;90.22
63554;BME280;49699;48.072;7.800;2022-12-18T03:09:13;100592.66;;;-6.88;89.82
63554;BME280;49699;48.072;7.800;2022-12-18T03:11:40;100602.13;;;-6.83;90.43
63554;BME280;49699;48.072;7.800;2022-12-18T03:14:34;100597.19;;;-6.78;90.40
63554;BME280;49699;48.072;7.800;2022-12-18T03:17:03;100605.63;;;-6.78;89.88
63554;BME280;49699;48.072;7.800;2022-12-18T03:19:31;100605.69;;;-6.76;90.09
63554;BME280;49699;48.072;7.800;2022-12-18T03:21:58;100601.47;;;-6.76;89.71
63554;BME280;49699;48.072;7.800;2022-12-18T03:24:31;100603.31;;;-6.72;89.87
63554;BME280;49699;48.072;7.800;2022-12-18T03:27:00;100600.06;;;-6.68;90.04
63554;BME280;49699;48.072;7.800;2022-12-18T03:29:29;100599.19;;;-6.68;89.36
63554;BME280;49699;48.072;7.800;2022-12-18T03:32:02;100605.06;;;-6.69;89.99
63554;BME280;49699;48.072;7.800;2022-12-18T03:34:32;100599.19;;;-6.68;89.23
63554;BME280;49699;48.072;7.800;2022-12-18T03:37:01;100603.41;;;-6.69;89.76
63554;BME280;49699;48.072;7.800;2022-12-18T03:39:27;100599.06;;;-6.73;89.05
63554;BME280;49699;48.072;7.800;2022-12-18T03:41:59;100604.00;;;-6.76;88.99
63554;BME280;49699;48.072;7.800;2022-12-18T03:44:37;100599.75;;;-6.77;89.84
63554;BME280;49699;48.072;7.800;2022-12-18T03:49:51;100597.22;;;-6.77;89.72
63554;BME280;49699;48.072;7.800;2022-12-18T03:52:28;100606.41;;;-6.80;89.23
63554;BME280;49699;48.072;7.800;2022-12-18T03:54:56;100610.47;;;-6.85;89.66
63554;BME280;49699;48.072;7.800;2022-12-18T03:57:24;100606.09;;;-6.91;89.42
63554;BME280;49699;48.072;7.800;2022-12-18T03:59:54;100601.94;;;-6.89;90.11
63554;BME280;49699;48.072;7.800;2022-12-18T04:02:24;100602.84;;;-6.87;89.94
63554;BME280;49699;48.072;7.800;2022-12-18T04:04:51;100608.09;;;-6.81;89.31
63554;BME280;49699;48.072;7.800;2022-12-18T04:07:18;100599.66;;;-6.80;89.25
63554;BME280;49699;48.072;7.800;2022-12-18T04:09:44;100598.78;;;-6.82;89.56
63554;BME280;49699;48.072;7.800;2022-12-18T04:12:12;100603.88;;;-6.80;89.34
63554;BME280;49699;48.072;7.800;2022-12-18T04:14:37;100599.59;;;-6.83;88.94
63554;BME280;49699;48.072;7.800;2022-12-18T04:17:06;100601.13;;;-6.88;88.89
63554;BME280;49699;48.072;7.800;2022-12-18T04:19:32;100600.16;;;-6.91;89.31
63554;BME280;49699;48.072;7.800;2022-12-18T04:21:58;100605.97;;;-6.94;88.99
63554;BME280;49699;48.072;7.800;2022-12-18T04:24:24;100596.66;;;-6.95;89.08
63554;BME280;49699;48.072;7.800;2022-12-18T04:27:04;100590.75;;;-6.95;89.33
63554;BME280;49699;48.072;7.800;2022-12-18T04:29:33;100583.03;;;-7.00;89.02
63554;BME280;49699;48.072;7.800;2022-12-18T04:31:58;100593.00;;;-7.05;89.16
63554;BME280;49699;48.072;7.800;2022-12-18T04:34:24;100597.91;;;-7.09;88.91
63554;BME280;49699;48.072;7.800;2022-12-18T04:36:52;100593.50;;;-7.15;88.71
63554;BME280;49699;48.072;7.800;2022-12-18T04:39:18;100595.97;;;-7.18;89.15
63554;BME280;49699;48.072;7.800;2022-12-18T04:41:45;100595.00;;;-7.21;89.24
63554;BME280;49699;48.072;7.800;2022-12-18T04:44:12;100599.31;;;-7.19;89.08
63554;BME280;49699;48.072;7.800;2022-12-18T04:46:37;100601.88;;;-7.17;89.02
63554;BME280;49699;48.072;7.800;2022-12-18T04:49:02;100596.00;;;-7.16;88.78
63554;BME280;49699;48.072;7.800;2022-12-18T04:51:27;100605.31;;;-7.15;89.06
63554;BME280;49699;48.072;7.800;2022-12-18T04:53:53;100607.81;;;-7.17;89.48
63554;BME280;49699;48.072;7.800;2022-12-18T04:56:18;100606.16;;;-7.15;88.88
63554;BME280;49699;48.072;7.800;2022-12-18T04:58:44;100607.06;;;-7.13;88.91
63554;BME280;49699;48.072;7.800;2022-12-18T05:01:10;100593.56;;;-7.13;88.69
63554;BME280;49699;48.072;7.800;2022-12-18T05:03:35;100586.72;;;-7.17;88.57
63554;BME280;49699;48.072;7.800;2022-12-18T05:06:01;100594.16;;;-7.22;89.08
63554;BME280;49699;48.072;7.800;2022-12-18T05:08:27;100586.50;;;-7.23;89.01
63554;BME280;49699;48.072;7.800;2022-12-18T05:10:59;100584.03;;;-7.22;89.15
63554;BME280;49699;48.072;7.800;2022-12-18T05:13:24;100593.19;;;-7.25;88.68
63554;BME280;49699;48.072;7.800;2022-12-18T05:15:53;100581.44;;;-7.23;88.98
63554;BME280;49699;48.072;7.800;2022-12-18T05:18:18;100581.66;;;-7.17;89.17
63554;BME280;49699;48.072;7.800;2022-12-18T05:20:44;100587.56;;;-7.17;88.56
63554;BME280;49699;48.072;7.800;2022-12-18T05:23:09;100589.25;;;-7.17;88.56
63554;BME280;49699;48.072;7.800;2022-12-18T05:25:34;100588.38;;;-7.18;88.27
63554;BME280;49699;48.072;7.800;2022-12-18T05:28:00;100589.94;;;-7.21;88.77
63554;BME280;49699;48.072;7.800;2022-12-18T05:30:25;100585.81;;;-7.19;88.45
63554;BME280;49699;48.072;7.800;2022-12-18T05:32:51;100587.53;;;-7.18;89.17
63554;BME280;49699;48.072;7.800;2022-12-18T05:35:16;100581.66;;;-7.16;88.81
63554;BME280;49699;48.072;7.800;2022-12-18T05:37:42;100585.91;;;-7.15;89.03
63554;BME280;49699;48.072;7.800;2022-12-18T05:40:07;100582.50;;;-7.17;88.07
63554;BME280;49699;48.072;7.800;2022-12-18T05:42:32;100584.03;;;-7.22;88.27
63554;BME280;49699;48.072;7.800;2022-12-18T05:44:58;100587.31;;;-7.24;88.14
63554;BME280;49699;48.072;7.800;2022-12-18T05:47:23;100588.94;;;-7.26;88.52
63554;BME280;49699;48.072;7.800;2022-12-18T05:49:48;100580.44;;;-7.28;88.16
63554;BME280;49699;48.072;7.800;2022-12-18T05:52:14;100588.13;;;-7.25;89.21
63554;BME280;49699;48.072;7.800;2022-12-18T05:54:39;100594.09;;;-7.23;88.65
63554;BME280;49699;48.072;7.800;2022-12-18T05:57:05;100597.53;;;-7.21;88.25
63554;BME280;49699;48.072;7.800;2022-12-18T05:59:30;100601.88;;;-7.17;88.41
63554;BME280;49699;48.072;7.800;2022-12-18T06:01:55;100599.25;;;-7.20;88.52
63554;BME280;49699;48.072;7.800;2022-12-18T06:04:21;100599.09;;;-7.25;88.05
63554;BME280;49699;48.072;7.800;2022-12-18T06:06:46;100606.53;;;-7.29;87.96
63554;BME280;49699;48.072;7.800;2022-12-18T06:09:11;100605.53;;;-7.34;88.12
63554;BME280;49699;48.072;7.800;2022-12-18T06:11:37;100606.13;;;-7.42;88.39
63554;BME280;49699;48.072;7.800;2022-12-18T06:14:02;100623.69;;;-7.46;88.66
63554;BME280;49699;48.072;7.800;2022-12-18T06:16:28;100617.59;;;-7.51;88.61
63554;BME280;49699;48.072;7.800;2022-12-18T06:18:55;100623.38;;;-7.55;88.67
63554;BME280;49699;48.072;7.800;2022-12-18T06:21:21;100629.25;;;-7.56;88.50
63554;BME280;49699;48.072;7.800;2022-12-18T06:23:46;100635.13;;;-7.57;88.45
63554;BME280;49699;48.072;7.800;2022-12-18T06:26:12;100639.19;;;-7.61;88.00
63554;BME280;49699;48.072;7.800;2022-12-18T06:28:37;100647.59;;;-7.62;88.07
63554;BME280;49699;48.072;7.800;2022-12-18T06:31:03;100651.69;;;-7.65;88.73
63554;BME280;49699;48.072;7.800;2022-12-18T06:33:29;100643.91;;;-7.70;88.81
63554;BME280;49699;48.072;7.800;2022-12-18T06:35:59;100650.50;;;-7.75;87.97
63554;BME280;49699;48.072;7.800;2022-12-18T06:38:24;100650.34;;;-7.80;87.94
63554;BME280;49699;48.072;7.800;2022-12-18T06:40:49;100653.50;;;-7.85;87.75
63554;BME280;49699;48.072;7.800;2022-12-18T06:43:15;100657.38;;;-7.95;88.20
63554;BME280;49699;48.072;7.800;2022-12-18T06:45:40;100662.25;;;-7.99;87.72
63554;BME280;49699;48.072;7.800;2022-12-18T06:48:05;100674.78;;;-8.02;87.78
63554;BME280;49699;48.072;7.800;2022-12-18T06:50:30;100660.41;;;-8.03;88.05
63554;BME280;49699;48.072;7.800;2022-12-18T06:52:56;100668.06;;;-8.02;88.07
63554;BME280;49699;48.072;7.800;2022-12-18T06:55:21;100667.19;;;-8.02;88.24
63554;BME280;49699;48.072;7.800;2022-12-18T06:57:46;100669.84;;;-7.99;87.79
63554;BME280;49699;48.072;7.800;2022-12-18T07:00:12;100675.00;;;-7.96;88.24
63554;BME280;49699;48.072;7.800;2022-12-18T07:02:37;100667.44;;;-7.96;88.21
63554;BME280;49699;48.072;7.800;2022-12-18T07:05:03;100664.91;;;-7.96;87.99
63554;BME280;49699;48.072;7.800;2022-12-18T07:07:28;100666.56;;;-7.97;88.17
63554;BME280;49699;48.072;7.800;2022-12-18T07:09:53;100667.38;;;-7.98;88.31
63554;BME280;49699;48.072;7.800;2022-12-18T07:12:18;100670.06;;;-7.93;87.92
63554;BME280;49699;48.072;7.800;2022-12-18T07:14:44;100670.94;;;-7.93;88.38
63554;BME280;49699;48.072;7.800;2022-12-18T07:17:09;100668.41;;;-7.93;87.54
63554;BME280;49699;48.072;7.800;2022-12-18T07:19:34;100676.16;;;-7.88;87.69
63554;BME280;49699;48.072;7.800;2022-12-18T07:22:00;100677.91;;;-7.86;88.11
63554;BME280;49699;48.072;7.800;2022-12-18T07:24:25;100687.16;;;-7.86;88.11
63554;BME280;49699;48.072;7.800;2022-12-18T07:26:50;100679.50;;;-7.88;88.23
63554;BME280;49699;48.072;7.800;2022-12-18T07:29:16;100682.09;;;-7.86;88.35
63554;BME280;49699;48.072;7.800;2022-12-18T07:31:41;100691.34;;;-7.87;87.82
63554;BME280;49699;48.072;7.800;2022-12-18T07:34:09;100695.59;;;-7.86;87.60
63554;BME280;49699;48.072;7.800;2022-12-18T07:36:35;100703.34;;;-7.81;88.19
63554;BME280;49699;48.072;7.800;2022-12-18T07:39:00;100707.72;;;-7.77;88.46
63554;BME280;49699;48.072;7.800;2022-12-18T07:41:25;100717.88;;;-7.76;87.63
63554;BME280;49699;48.072;7.800;2022-12-18T07:43:50;100720.34;;;-7.77;87.65
63554;BME280;49699;48.072;7.800;2022-12-18T07:46:16;100711.84;;;-7.79;87.85
63554;BME280;49699;48.072;7.800;2022-12-18T07:48:42;100715.19;;;-7.80;87.54
63554;BME280;49699;48.072;7.800;2022-12-18T07:51:07;100717.78;;;-7.79;87.74
63554;BME280;49699;48.072;7.800;2022-12-18T07:53:32;100730.34;;;-7.80;87.76
63554;BME280;49699;48.072;7.800;2022-12-18T07:55:59;100738.78;;;-7.80;87.48
63554;BME280;49699;48.072;7.800;2022-12-18T07:58:24;100733.84;;;-7.77;87.57
63554;BME280;49699;48.072;7.800;2022-12-18T08:00:50;100734.59;;;-7.79;87.63
63554;BME280;49699;48.072;7.800;2022-12-18T08:03:15;100750.44;;;-7.83;87.59
63554;BME280;49699;48.072;7.800;2022-12-18T08:05:40;100748.59;;;-7.87;87.14
63554;BME280;49699;48.072;7.800;2022-12-18T08:08:06;100745.06;;;-7.92;87.20
63554;BME280;49699;48.072;7.800;2022-12-18T08:10:31;100735.88;;;-7.90;88.03
63554;BME280;49699;48.072;7.800;2022-12-18T08:12:56;100739.84;;;-7.75;87.79
63554;BME280;49699;48.072;7.800;2022-12-18T08:15:22;100727.78;;;-7.58;87.40
63554;BME280;49699;48.072;7.800;2022-12-18T08:17:47;100735.16;;;-7.40;86.04
63554;BME280;49699;48.072;7.800;2022-12-18T08:20:12;100732.81;;;-7.34;85.56
63554;BME280;49699;48.072;7.800;2022-12-18T08:22:40;100739.59;;;-7.33;84.81
63554;BME280;49699;48.072;7.800;2022-12-18T08:25:05;100743.06;;;-7.31;84.66
63554;BME280;49699;48.072;7.800;2022-12-18T08:27:31;100735.91;;;-7.19;84.16
63554;BME280;49699;48.072;7.800;2022-12-18T08:29:56;100726.41;;;-7.01;83.74
63554;BME280;49699;48.072;7.800;2022-12-18T08:32:22;100715.00;;;-6.88;82.99
63554;BME280;49699;48.072;7.800;2022-12-18T08:34:47;100710.28;;;-6.77;82.04
63554;BME280;49699;48.072;7.800;2022-12-18T08:37:12;100706.13;;;-6.75;81.63
63554;BME280;49699;48.072;7.800;2022-12-18T08:39:37;100703.06;;;-6.67;80.96
63554;BME280;49699;48.072;7.800;2022-12-18T08:42:03;100692.38;;;-6.56;80.29
63554;BME280;49699;48.072;7.800;2022-12-18T08:44:47;100700.41;;;-6.43;79.33
63554;BME280;49699;48.072;7.800;2022-12-18T08:47:12;100691.47;;;-6.32;78.57
63554;BME280;49699;48.072;7.800;2022-12-18T08:49:37;100695.16;;;-6.20;77.74
63554;BME280;49699;48.072;7.800;2022-12-18T08:52:02;100685.47;;;-6.05;77.39
63554;BME280;49699;48.072;7.800;2022-12-18T08:54:28;100680.03;;;-5.89;76.84
63554;BME280;49699;48.072;7.800;2022-12-18T08:56:53;100680.41;;;-5.75;76.20
63554;BME280;49699;48.072;7.800;2022-12-18T08:59:18;100674.84;;;-5.62;75.69
63554;BME280;49699;48.072;7.800;2022-12-18T09:01:44;100684.72;;;-5.41;75.30
63554;BME280;49699;48.072;7.800;2022-12-18T09:04:10;100685.28;;;-5.18;74.70
63554;BME280;49699;48.072;7.800;2022-12-18T09:06:35;100684.91;;;-4.99;74.52
63554;BME280;49699;48.072;7.800;2022-12-18T09:09:01;100671.00;;;-4.80;73.45
63554;BME280;49699;48.072;7.800;2022-12-18T09:11:27;100671.78;;;-4.84;72.85
63554;BME280;49699;48.072;7.800;2022-12-18T09:13:53;100674.22;;;-4.87;73.64
63554;BME280;49699;48.072;7.800;2022-12-18T09:16:19;100672.59;;;-4.85;73.23
63554;BME280;49699;48.072;7.800;2022-12-18T09:18:45;100677.00;;;-4.77;73.03
63554;BME280;49699;48.072;7.800;2022-12-18T09:21:20;100674.00;;;-4.61;72.60
63554;BME280;49699;48.072;7.800;2022-12-18T09:23:52;100676.06;;;-4.44;71.98
63554;BME280;49699;48.072;7.800;2022-12-18T09:26:17;100679.72;;;-4.33;71.63
63554;BME280;49699;48.072;7.800;2022-12-18T09:28:43;100680.59;;;-4.33;71.76
63554;BME280;49699;48.072;7.800;2022-12-18T09:31:08;100681.25;;;-4.40;71.65
63554;BME280;49699;48.072;7.800;2022-12-18T09:33:35;100684.44;;;-4.50;71.83
63554;BME280;49699;48.072;7.800;2022-12-18T09:36:02;100682.38;;;-4.65;71.99
63554;BME280;49699;48.072;7.800;2022-12-18T09:38:28;100700.19;;;-4.98;72.45
63554;BME280;49699;48.072;7.800;2022-12-18T09:40:55;100695.03;;;-5.34;73.32
63554;BME280;49699;48.072;7.800;2022-12-18T09:43:25;100700.41;;;-5.54;74.70
63554;BME280;49699;48.072;7.800;2022-12-18T09:45:53;100704.19;;;-5.70;75.29
63554;BME280;49699;48.072;7.800;2022-12-18T09:48:28;100709.66;;;-5.86;75.30
63554;BME280;49699;48.072;7.800;2022-12-18T09:50:57;100715.06;;;-6.04;75.94
63554;BME280;49699;48.072;7.800;2022-12-18T09:53:24;100705.66;;;-6.10;76.76
63554;BME280;49699;48.072;7.800;2022-12-18T09:55:51;100706.25;;;-6.17;76.84
63554;BME280;49699;48.072;7.800;2022-12-18T10:00:43;100712.38;;;-6.10;77.31
63554;BME280;49699;48.072;7.800;2022-12-18T10:03:10;100709.53;;;-5.91;77.03
63554;BME280;49699;48.072;7.800;2022-12-18T10:05:52;100700.66;;;-5.77;76.41
63554;BME280;49699;48.072;7.800;2022-12-18T10:10:56;100699.06;;;-5.72;76.45
63554;BME280;49699;48.072;7.800;2022-12-18T10:13:24;100693.38;;;-5.65;76.15
63554;BME280;49699;48.072;7.800;2022-12-18T10:18:22;100683.84;;;-5.73;76.24
63554;BME280;49699;48.072;7.800;2022-12-18T10:20:55;100682.94;;;-5.75;76.72
63554;BME280;49699;48.072;7.800;2022-12-18T10:28:20;100663.06;;;-5.60;76.85
63554;BME280;49699;48.072;7.800;2022-12-18T10:30:46;100666.47;;;-5.60;76.82
63554;BME280;49699;48.072;7.800;2022-12-18T10:33:12;100664.97;;;-5.51;76.93
63554;BME280;49699;48.072;7.800;2022-12-18T10:35:38;100664.59;;;-5.34;76.72
63554;BME280;49699;48.072;7.800;2022-12-18T10:38:07;100654.81;;;-5.18;76.18
63554;BME280;49699;48.072;7.800;2022-12-18T10:43:21;100645.06;;;-5.03;75.89
63554;BME280;49699;48.072;7.800;2022-12-18T10:45:59;100646.22;;;-4.91;75.53
63554;BME280;49699;48.072;7.800;2022-12-18T10:48:25;100661.09;;;-4.70;74.82
63554;BME280;49699;48.072;7.800;2022-12-18T10:50:50;100653.91;;;-4.51;74.34
63554;BME280;49699;48.072;7.800;2022-12-18T10:53:22;100648.03;;;-4.47;73.99
63554;BME280;49699;48.072;7.800;2022-12-18T10:55:47;100645.56;;;-4.44;73.98
63554;BME280;49699;48.072;7.800;2022-12-18T11:00:38;100631.75;;;-4.57;74.08
63554;BME280;49699;48.072;7.800;2022-12-18T11:03:07;100615.78;;;-4.51;73.90
63554;BME280;49699;48.072;7.800;2022-12-18T11:05:49;100617.69;;;-4.41;73.83
63554;BME280;49699;48.072;7.800;2022-12-18T11:08:25;100621.31;;;-4.32;73.40
63554;BME280;49699;48.072;7.800;2022-12-18T11:10:51;100618.91;;;-4.24;73.36
63554;BME280;49699;48.072;7.800;2022-12-18T11:13:17;100615.75;;;-4.14;73.19
63554;BME280;49699;48.072;7.800;2022-12-18T11:15:43;100620.03;;;-4.10;73.13
63554;BME280;49699;48.072;7.800;2022-12-18T11:18:42;100621.78;;;-4.07;73.28
63554;BME280;49699;48.072;7.800;2022-12-18T11:21:08;100619.53;;;-3.92;72.97
63554;BME280;49699;48.072;7.800;2022-12-18T11:23:34;100622.59;;;-3.66;72.53
63554;BME280;49699;48.072;7.800;2022-12-18T11:26:06;100622.22;;;-3.39;72.01
63554;BME280;49699;48.072;7.800;2022-12-18T11:28:36;100614.25;;;-3.09;71.10
63554;BME280;49699;48.072;7.800;2022-12-18T11:31:09;100614.38;;;-3.02;71.16
63554;BME280;49699;48.072;7.800;2022-12-18T11:33:37;100612.72;;;-3.00;70.82
63554;BME280;49699;48.072;7.800;2022-12-18T11:36:03;100624.66;;;-2.96;70.94
63554;BME280;49699;48.072;7.800;2022-12-18T11:38:30;100633.28;;;-2.88;71.11
63554;BME280;49699;48.072;7.800;2022-12-18T11:43:32;100634.16;;;-2.86;71.12
63554;BME280;49699;48.072;7.800;2022-12-18T11:46:00;100619.78;;;-2.82;71.16
63554;BME280;49699;48.072;7.800;2022-12-18T11:48:28;100612.22;;;-2.76;71.16
63554;BME280;49699;48.072;7.800;2022-12-18T11:50:57;100607.25;;;-2.67;70.97
63554;BME280;49699;48.072;7.800;2022-12-18T11:53:24;100595.44;;;-2.62;70.98
63554;BME280;49699;48.072;7.800;2022-12-18T11:56:00;100601.47;;;-2.57;70.83
63554;BME280;49699;48.072;7.800;2022-12-18T12:03:39;100599.06;;;-2.45;70.92
63554;BME280;49699;48.072;7.800;2022-12-18T12:09:08;100590.53;;;-2.48;71.01
63554;BME280;49699;48.072;7.800;2022-12-18T12:14:25;100580.41;;;-2.43;71.32
63554;BME280;49699;48.072;7.800;2022-12-18T12:24:48;100577.75;;;-2.50;71.90
63554;BME280;49699;48.072;7.800;2022-12-18T12:29:52;100570.13;;;-2.51;72.39
63554;BME280;49699;48.072;7.800;2022-12-18T12:32:28;100571.81;;;-2.50;72.24
63554;BME280;49699;48.072;7.800;2022-12-18T12:37:41;100574.28;;;-2.56;72.43
63554;BME280;49699;48.072;7.800;2022-12-18T12:40:10;100574.34;;;-2.50;72.37
63554;BME280;49699;48.072;7.800;2022-12-18T12:42:47;100582.91;;;-2.47;72.92
63554;BME280;49699;48.072;7.800;2022-12-18T12:47:59;100586.44;;;-2.37;72.75
63554;BME280;49699;48.072;7.800;2022-12-18T12:50:27;100589.09;;;-2.28;72.32
63554;BME280;49699;48.072;7.800;2022-12-18T12:52:53;100583.25;;;-2.21;72.14
63554;BME280;49699;48.072;7.800;2022-12-18T12:55:24;100573.97;;;-2.14;72.06
63554;BME280;49699;48.072;7.800;2022-12-18T12:58:01;100574.00;;;-2.11;72.24
63554;BME280;49699;48.072;7.800;2022-12-18T13:00:33;100576.59;;;-2.06;71.88
63554;BME280;49699;48.072;7.800;2022-12-18T13:08:04;100552.78;;;-2.08;72.28
63554;BME280;49699;48.072;7.800;2022-12-18T13:10:32;100555.19;;;-2.21;72.63
63554;BME280;49699;48.072;7.800;2022-12-18T13:30:59;100544.34;;;-2.03;73.50
63554;BME280;49699;48.072;7.800;2022-12-18T13:38:32;100541.53;;;-2.24;73.85
63554;BME280;49699;48.072;7.800;2022-12-18T13:40:58;100534.56;;;-2.40;74.73
63554;BME280;49699;48.072;7.800;2022-12-18T13:43:28;100539.50;;;-2.53;75.46
63554;BME280;49699;48.072;7.800;2022-12-18T13:48:30;100533.31;;;-2.71;76.15
63554;BME280;49699;48.072;7.800;2022-12-18T13:51:06;100521.47;;;-2.69;75.96
63554;BME280;49699;48.072;7.800;2022-12-18T13:53:37;100516.31;;;-2.72;75.92
63554;BME280;49699;48.072;7.800;2022-12-18T13:56:04;100526.41;;;-2.80;76.48
63554;BME280;49699;48.072;7.800;2022-12-18T13:58:30;100534.81;;;-2.84;76.71
63554;BME280;49699;48.072;7.800;2022-12-18T14:00:55;100525.50;;;-2.82;76.65
63554;BME280;49699;48.072;7.800;2022-12-18T14:03:22;100534.00;;;-2.82;76.92
63554;BME280;49699;48.072;7.800;2022-12-18T14:06:03;100528.91;;;-2.82;76.82
63554;BME280;49699;48.072;7.800;2022-12-18T14:08:38;100523.03;;;-2.77;77.25
63554;BME280;49699;48.072;7.800;2022-12-18T14:11:04;100523.09;;;-2.73;76.69
63554;BME280;49699;48.072;7.800;2022-12-18T14:13:33;100530.81;;;-2.65;76.89
63554;BME280;49699;48.072;7.800;2022-12-18T14:16:01;100528.31;;;-2.62;76.52
63554;BME280;49699;48.072;7.800;2022-12-18T14:18:34;100527.59;;;-2.55;76.44
63554;BME280;49699;48.072;7.800;2022-12-18T14:21:03;100516.59;;;-2.48;76.62